createdAt,value
2023-05-11T00:01:33.763Z,8.32
2023-05-11T00:04:00.939Z,8.13
2023-05-11T00:06:27.566Z,8.82
2023-05-11T00:08:54.205Z,8.27
2023-05-11T00:11:21.079Z,7.55
2023-05-11T00:13:47.738Z,8.00
2023-05-11T00:16:14.794Z,8.43
2023-05-11T00:18:41.471Z,8.20
2023-05-11T00:21:08.130Z,8.10
2023-05-11T00:23:34.840Z,7.97
2023-05-11T00:26:01.592Z,7.72
2023-05-11T00:28:28.114Z,8.30
2023-05-11T00:30:58.233Z,8.27
2023-05-11T00:33:24.998Z,7.70
2023-05-11T00:35:52.060Z,7.20
2023-05-11T00:38:18.533Z,7.32
2023-05-11T00:40:46.491Z,7.82
2023-05-11T00:43:13.235Z,7.57
2023-05-11T00:45:40.524Z,8.07
2023-05-11T00:48:07.561Z,7.20
2023-05-11T00:50:36.020Z,7.57
2023-05-11T00:53:03.276Z,7.93
2023-05-11T00:55:30.509Z,7.13
2023-05-11T00:57:57.259Z,7.70
2023-05-11T01:00:23.864Z,8.18
2023-05-11T01:02:51.327Z,8.23
2023-05-11T01:05:18.052Z,8.95
2023-05-11T01:07:50.681Z,8.60
2023-05-11T01:10:44.668Z,8.68
2023-05-11T01:13:32.701Z,8.32
2023-05-11T01:16:06.474Z,8.80
2023-05-11T01:18:46.974Z,9.13
2023-05-11T01:21:17.321Z,8.40
2023-05-11T01:23:51.451Z,9.15
2023-05-11T01:26:54.344Z,9.70
2023-05-11T01:29:48.978Z,10.05
2023-05-11T01:32:19.682Z,9.85
2023-05-11T01:34:48.406Z,10.25
2023-05-11T01:37:23.945Z,10.60
2023-05-11T01:39:55.120Z,10.35
2023-05-11T01:42:38.378Z,9.90
2023-05-11T01:45:07.908Z,9.50
2023-05-11T01:47:37.333Z,9.57
2023-05-11T01:50:06.071Z,9.35
2023-05-11T01:52:36.413Z,9.63
2023-05-11T01:55:06.491Z,8.98
2023-05-11T01:57:36.586Z,8.95
2023-05-11T02:00:04.192Z,9.48
2023-05-11T02:02:40.519Z,10.48
2023-05-11T02:05:07.912Z,9.50
2023-05-11T02:07:36.388Z,9.45
2023-05-11T02:10:03.174Z,9.10
2023-05-11T02:12:33.932Z,9.40
2023-05-11T02:15:03.240Z,9.63
2023-05-11T02:17:30.856Z,9.93
2023-05-11T02:19:59.263Z,8.98
2023-05-11T02:22:27.409Z,9.95
2023-05-11T02:24:53.995Z,9.50
2023-05-11T02:27:20.793Z,8.55
2023-05-11T02:29:47.557Z,9.05
2023-05-11T02:32:18.144Z,9.45
2023-05-11T02:34:50.160Z,10.00
2023-05-11T02:37:23.734Z,9.32
2023-05-11T02:39:59.325Z,9.52
2023-05-11T02:42:28.959Z,8.98
2023-05-11T02:45:17.803Z,9.20
2023-05-11T02:47:54.715Z,9.68
2023-05-11T02:50:26.017Z,9.18
2023-05-11T02:52:55.646Z,9.35
2023-05-11T02:55:23.632Z,9.10
2023-05-11T02:57:50.657Z,8.57
2023-05-11T03:00:18.071Z,7.88
2023-05-11T03:02:45.332Z,8.18
2023-05-11T03:05:12.349Z,8.63
2023-05-11T03:07:38.969Z,8.85
2023-05-11T03:10:07.307Z,8.38
2023-05-11T03:12:38.371Z,9.25
2023-05-11T03:15:07.519Z,8.60
2023-05-11T03:17:39.414Z,9.85
2023-05-11T03:20:07.625Z,8.98
2023-05-11T03:22:36.950Z,7.95
2023-05-11T03:25:05.870Z,9.00
2023-05-11T03:27:34.117Z,8.32
2023-05-11T03:30:04.724Z,9.65
2023-05-11T03:32:37.954Z,11.93
2023-05-11T03:35:05.278Z,10.57
2023-05-11T03:37:32.573Z,11.25
2023-05-11T03:40:01.078Z,14.45
2023-05-11T03:42:38.590Z,14.80
2023-05-11T03:45:08.999Z,14.75
2023-05-11T03:47:38.322Z,14.75
2023-05-11T03:50:07.249Z,15.70
2023-05-11T03:52:35.631Z,15.07
2023-05-11T03:55:03.588Z,14.95
2023-05-11T03:57:30.740Z,17.13
2023-05-11T03:59:57.248Z,19.35
2023-05-11T04:02:24.728Z,16.73
2023-05-11T04:04:53.048Z,17.48
2023-05-11T04:07:20.256Z,18.73
2023-05-11T04:09:47.142Z,19.63
2023-05-11T04:12:13.648Z,17.95
2023-05-11T04:14:41.810Z,18.50
2023-05-11T04:17:08.332Z,17.00
2023-05-11T04:19:34.792Z,18.27
2023-05-11T04:22:01.323Z,17.65
2023-05-11T04:24:28.057Z,17.92
2023-05-11T04:26:57.871Z,18.60
2023-05-11T04:29:25.357Z,16.40
2023-05-11T04:31:53.612Z,17.95
2023-05-11T04:34:20.313Z,17.52
2023-05-11T04:36:50.262Z,17.80
2023-05-11T04:39:18.863Z,17.70
2023-05-11T04:41:45.600Z,17.25
2023-05-11T04:44:12.275Z,15.88
2023-05-11T04:46:38.939Z,17.25
2023-05-11T04:49:06.870Z,14.73
2023-05-11T04:51:37.735Z,13.60
2023-05-11T04:54:04.263Z,14.95
2023-05-11T04:56:30.921Z,15.27
2023-05-11T04:58:59.165Z,15.35
2023-05-11T05:01:25.787Z,13.68
2023-05-11T05:03:52.416Z,14.02
2023-05-11T05:06:18.919Z,12.85
2023-05-11T05:08:45.500Z,11.88
2023-05-11T05:11:12.074Z,12.13
2023-05-11T05:13:38.948Z,12.45
2023-05-11T05:16:05.868Z,10.55
2023-05-11T05:18:32.643Z,11.23
2023-05-11T05:20:59.836Z,10.32
2023-05-11T05:23:26.814Z,9.27
2023-05-11T05:25:53.615Z,10.70
2023-05-11T05:28:20.745Z,9.75
2023-05-11T05:30:47.490Z,9.60
2023-05-11T05:33:14.955Z,10.40
2023-05-11T05:35:43.824Z,10.18
2023-05-11T05:38:10.904Z,10.35
2023-05-11T05:40:39.395Z,10.52
2023-05-11T05:43:06.834Z,10.85
2023-05-11T05:45:33.743Z,10.32
2023-05-11T05:48:01.169Z,10.80
2023-05-11T05:50:27.842Z,10.48
2023-05-11T05:52:54.428Z,9.75
2023-05-11T05:55:23.911Z,10.75
2023-05-11T05:57:51.270Z,10.85
2023-05-11T06:00:18.302Z,10.48
2023-05-11T06:02:52.683Z,10.90
2023-05-11T06:05:24.231Z,11.02
2023-05-11T06:08:01.753Z,11.20
2023-05-11T06:10:36.673Z,10.27
2023-05-11T06:13:03.366Z,10.25
2023-05-11T06:15:29.991Z,10.77
2023-05-11T06:18:02.826Z,10.45
2023-05-11T06:20:31.797Z,10.25
2023-05-11T06:22:58.601Z,11.23
2023-05-11T06:25:25.978Z,10.15
2023-05-11T06:27:52.460Z,10.30
2023-05-11T06:30:19.554Z,9.52
2023-05-11T06:32:48.298Z,9.68
2023-05-11T06:35:17.883Z,9.48
2023-05-11T06:37:45.342Z,8.82
2023-05-11T06:40:13.451Z,9.20
2023-05-11T06:42:41.045Z,8.27
2023-05-11T06:45:10.356Z,7.38
2023-05-11T06:47:37.007Z,7.55
2023-05-11T06:50:04.144Z,7.88
2023-05-11T06:52:30.745Z,7.28
2023-05-11T06:55:01.576Z,7.97
2023-05-11T06:57:28.185Z,7.18
2023-05-11T06:59:54.782Z,7.45
2023-05-11T07:02:21.264Z,7.15
2023-05-11T07:04:50.447Z,7.28
2023-05-11T07:07:16.954Z,7.00
2023-05-11T07:09:43.850Z,7.55
2023-05-11T07:12:10.541Z,7.10
2023-05-11T07:14:38.634Z,7.88
2023-05-11T07:17:05.344Z,7.15
2023-05-11T07:19:32.128Z,6.97
2023-05-11T07:21:58.742Z,7.32
2023-05-11T07:24:25.478Z,7.05
2023-05-11T07:26:52.056Z,6.90
2023-05-11T07:29:18.811Z,7.93
2023-05-11T07:31:45.411Z,8.15
2023-05-11T07:34:11.971Z,8.23
2023-05-11T07:36:38.486Z,8.15
2023-05-11T07:39:04.984Z,7.78
2023-05-11T07:41:31.505Z,8.02
2023-05-11T07:44:00.271Z,7.95
2023-05-11T07:46:26.828Z,7.57
2023-05-11T07:49:03.359Z,8.15
2023-05-11T07:51:40.035Z,8.45
2023-05-11T07:54:06.589Z,8.20
2023-05-11T07:56:33.154Z,8.75
2023-05-11T07:58:59.606Z,8.57
2023-05-11T08:01:27.642Z,8.43
2023-05-11T08:03:54.107Z,9.27
2023-05-11T08:06:20.633Z,8.98
2023-05-11T08:08:47.178Z,9.07
2023-05-11T08:11:13.627Z,8.63
2023-05-11T08:13:40.312Z,8.38
2023-05-11T08:16:07.141Z,8.52
2023-05-11T08:18:33.746Z,8.95
2023-05-11T08:21:00.268Z,8.57
2023-05-11T08:23:26.908Z,9.40
2023-05-11T08:25:55.209Z,9.10
2023-05-11T08:28:22.171Z,9.13
2023-05-11T08:30:58.903Z,9.38
2023-05-11T08:33:36.474Z,9.30
2023-05-11T08:36:06.119Z,9.85
2023-05-11T08:38:33.316Z,10.20
2023-05-11T08:41:01.809Z,10.60
2023-05-11T08:43:30.328Z,11.30
2023-05-11T08:46:02.749Z,11.20
2023-05-11T08:48:29.422Z,11.10
2023-05-11T08:50:56.004Z,10.93
2023-05-11T08:53:22.903Z,10.48
2023-05-11T08:55:51.617Z,9.65
2023-05-11T08:58:21.776Z,9.65
2023-05-11T09:00:49.786Z,9.10
2023-05-11T09:03:17.950Z,8.80
2023-05-11T09:05:46.667Z,8.48
2023-05-11T09:08:15.067Z,9.25
2023-05-11T09:10:43.645Z,9.55
2023-05-11T09:13:11.137Z,8.48
2023-05-11T09:15:38.287Z,8.07
2023-05-11T09:18:05.379Z,7.97
2023-05-11T09:20:33.675Z,7.57
2023-05-11T09:23:01.269Z,8.13
2023-05-11T09:25:33.543Z,7.78
2023-05-11T09:28:00.859Z,7.13
2023-05-11T09:30:27.655Z,7.40
2023-05-11T09:32:58.226Z,8.48
2023-05-11T09:35:29.125Z,8.30
2023-05-11T09:38:09.858Z,8.95
2023-05-11T09:40:37.747Z,8.23
2023-05-11T09:43:17.369Z,8.93
2023-05-11T09:45:46.070Z,8.30
2023-05-11T09:48:21.503Z,8.40
2023-05-11T09:50:49.382Z,8.32
2023-05-11T09:53:16.894Z,9.45
2023-05-11T09:55:51.889Z,8.05
2023-05-11T09:58:18.462Z,9.40
2023-05-11T10:00:54.089Z,9.88
2023-05-11T10:03:20.946Z,10.00
2023-05-11T10:05:59.533Z,10.55
2023-05-11T10:08:30.674Z,10.48
2023-05-11T10:10:57.736Z,10.05
2023-05-11T10:13:24.848Z,9.63
2023-05-11T10:15:52.275Z,11.07
2023-05-11T10:18:20.464Z,10.73
2023-05-11T10:20:47.459Z,9.77
2023-05-11T10:23:15.116Z,10.00
2023-05-11T10:25:42.576Z,9.60
2023-05-11T10:28:10.541Z,10.88
2023-05-11T10:30:37.436Z,10.27
2023-05-11T10:33:06.603Z,10.75
2023-05-11T10:35:33.597Z,10.38
2023-05-11T10:38:01.029Z,10.77
2023-05-11T10:40:28.058Z,10.32
2023-05-11T10:43:17.192Z,11.25
2023-05-11T10:46:01.362Z,11.07
2023-05-11T10:49:05.855Z,10.65
2023-05-11T10:52:07.622Z,9.85
2023-05-11T10:54:49.138Z,9.32
2023-05-11T10:57:49.687Z,9.70
2023-05-11T11:00:48.678Z,10.15
2023-05-11T11:03:15.667Z,9.98
2023-05-11T11:05:43.992Z,11.02
2023-05-11T11:08:11.026Z,10.63
2023-05-11T11:10:45.505Z,10.73
2023-05-11T11:13:16.960Z,10.90
2023-05-11T11:15:55.442Z,10.57
2023-05-11T11:18:34.892Z,10.55
2023-05-11T11:21:02.155Z,10.30
2023-05-11T11:23:50.312Z,11.48
2023-05-11T11:26:47.374Z,11.15
2023-05-11T11:29:14.002Z,11.00
2023-05-11T11:31:41.475Z,11.15
2023-05-11T11:34:27.204Z,11.63
2023-05-11T11:37:03.694Z,12.75
2023-05-11T11:39:42.669Z,12.55
2023-05-11T11:42:14.152Z,12.75
2023-05-11T11:44:41.714Z,13.10
2023-05-11T11:47:25.922Z,12.73
2023-05-11T11:49:54.663Z,12.40
2023-05-11T11:52:27.108Z,12.20
2023-05-11T11:54:55.939Z,12.35
2023-05-11T11:57:34.433Z,12.45
2023-05-11T12:00:06.989Z,12.93
2023-05-11T12:02:44.610Z,12.80
2023-05-11T12:05:23.028Z,12.63
2023-05-11T12:07:52.077Z,13.30
2023-05-11T12:10:21.437Z,13.70
2023-05-11T12:12:49.832Z,14.32
2023-05-11T12:15:26.563Z,15.30
2023-05-11T12:17:54.954Z,16.25
2023-05-11T12:20:22.725Z,15.85
2023-05-11T12:22:50.536Z,15.93
2023-05-11T12:25:18.636Z,16.55
2023-05-11T12:28:03.550Z,17.10
2023-05-11T12:30:52.054Z,16.25
2023-05-11T12:33:18.649Z,16.33
2023-05-11T12:35:45.521Z,16.52
2023-05-11T12:38:11.967Z,17.48
2023-05-11T12:40:38.854Z,17.27
2023-05-11T12:43:05.599Z,17.05
2023-05-11T12:45:32.163Z,17.38
2023-05-11T12:47:59.344Z,17.25
2023-05-11T12:50:25.945Z,17.52
2023-05-11T12:52:52.753Z,17.30
2023-05-11T12:55:30.992Z,16.58
2023-05-11T12:58:14.465Z,16.15
2023-05-11T13:00:57.535Z,16.40
2023-05-11T13:03:29.006Z,16.40
2023-05-11T13:06:09.106Z,14.88
2023-05-11T13:08:37.442Z,15.02
2023-05-11T13:11:22.521Z,13.63
2023-05-11T13:13:49.853Z,13.07
2023-05-11T13:16:34.118Z,12.93
2023-05-11T13:19:02.597Z,12.35
2023-05-11T13:21:30.418Z,13.32
2023-05-11T13:23:57.040Z,11.85
2023-05-11T13:26:25.589Z,10.38
2023-05-11T13:29:08.768Z,10.57
2023-05-11T13:31:48.145Z,10.05
2023-05-11T13:34:14.782Z,9.80
2023-05-11T13:36:41.414Z,10.20
2023-05-11T13:39:08.092Z,9.73
2023-05-11T13:41:34.737Z,10.20
2023-05-11T13:44:01.384Z,9.68
2023-05-11T13:46:29.030Z,9.23
2023-05-11T13:48:55.743Z,9.13
2023-05-11T13:51:23.175Z,9.55
2023-05-11T13:53:49.650Z,8.45
2023-05-11T13:56:19.374Z,8.88
2023-05-11T13:58:46.074Z,8.38
2023-05-11T14:01:13.908Z,8.45
2023-05-11T14:03:42.941Z,8.15
2023-05-11T14:06:09.514Z,8.38
2023-05-11T14:08:36.091Z,8.50
2023-05-11T14:11:02.558Z,7.97
2023-05-11T14:13:29.126Z,9.15
2023-05-11T14:15:56.698Z,8.73
2023-05-11T14:18:24.900Z,8.38
2023-05-11T14:20:51.855Z,8.48
2023-05-11T14:23:18.439Z,8.48
2023-05-11T14:25:44.959Z,8.93
2023-05-11T14:28:11.564Z,9.38
2023-05-11T14:30:38.151Z,8.45
2023-05-11T14:33:04.794Z,9.25
2023-05-11T14:35:31.385Z,8.70
2023-05-11T14:37:57.966Z,9.35
2023-05-11T14:40:24.487Z,10.15
2023-05-11T14:42:51.090Z,10.35
2023-05-11T14:45:18.062Z,11.02
2023-05-11T14:47:44.832Z,9.98
2023-05-11T14:50:11.479Z,9.20
2023-05-11T14:52:38.302Z,10.57
2023-05-11T14:55:05.234Z,9.32
2023-05-11T14:57:32.467Z,10.63
2023-05-11T15:00:00.424Z,10.00
2023-05-11T15:02:27.683Z,10.02
2023-05-11T15:04:54.990Z,11.23
2023-05-11T15:07:22.344Z,11.07
2023-05-11T15:09:49.743Z,10.90
2023-05-11T15:12:16.306Z,11.13
2023-05-11T15:14:42.802Z,10.90
2023-05-11T15:17:09.305Z,10.82
2023-05-11T15:19:36.049Z,10.52
2023-05-11T15:22:02.711Z,9.52
2023-05-11T15:24:29.262Z,9.57
2023-05-11T15:26:56.905Z,9.35
2023-05-11T15:29:27.091Z,8.30
2023-05-11T15:31:53.780Z,7.93
2023-05-11T15:34:20.728Z,8.32
2023-05-11T15:36:48.856Z,7.97
2023-05-11T15:39:18.568Z,7.18
2023-05-11T15:41:45.111Z,7.35
2023-05-11T15:44:11.629Z,7.38
2023-05-11T15:46:38.907Z,8.23
2023-05-11T15:49:06.209Z,7.70
2023-05-11T15:51:32.799Z,8.35
2023-05-11T15:53:59.422Z,8.15
2023-05-11T15:56:26.463Z,7.60
2023-05-11T15:58:53.016Z,8.35
2023-05-11T16:01:21.080Z,9.23
2023-05-11T16:03:48.861Z,9.65
2023-05-11T16:06:16.732Z,9.23
2023-05-11T16:08:43.290Z,8.80
2023-05-11T16:11:09.909Z,10.40
2023-05-11T16:13:36.417Z,10.02
2023-05-11T16:16:03.004Z,10.35
2023-05-11T16:18:29.630Z,9.90
2023-05-11T16:20:56.538Z,10.45
2023-05-11T16:23:25.260Z,9.85
2023-05-11T16:25:51.934Z,10.73
2023-05-11T16:28:18.483Z,9.95
2023-05-11T16:30:45.057Z,9.93
2023-05-11T16:33:11.616Z,10.13
2023-05-11T16:35:38.255Z,10.68
2023-05-11T16:38:06.000Z,10.27
2023-05-11T16:40:33.262Z,10.18
2023-05-11T16:42:59.856Z,10.77
2023-05-11T16:45:26.433Z,10.38
2023-05-11T16:47:52.971Z,10.75
2023-05-11T16:50:19.704Z,15.15
2023-05-11T16:52:46.370Z,13.45
2023-05-11T16:55:13.123Z,10.77
2023-05-11T16:57:39.905Z,9.00
2023-05-11T17:00:08.310Z,7.53
2023-05-11T17:02:34.946Z,7.53
2023-05-11T17:05:02.962Z,6.18
2023-05-11T17:07:29.471Z,6.43
2023-05-11T17:09:57.208Z,5.82
2023-05-11T17:12:24.163Z,5.88
2023-05-11T17:14:50.704Z,7.07
2023-05-11T17:17:17.400Z,7.53
2023-05-11T17:19:44.360Z,7.75
2023-05-11T17:22:13.149Z,8.07
2023-05-11T17:24:40.014Z,8.35
2023-05-11T17:27:07.048Z,8.07
2023-05-11T17:29:33.634Z,7.95
2023-05-11T17:32:00.299Z,8.02
2023-05-11T17:34:28.594Z,7.72
2023-05-11T17:36:56.610Z,9.48
2023-05-11T17:39:23.091Z,8.77
2023-05-11T17:41:49.865Z,9.50
2023-05-11T17:44:16.399Z,9.10
2023-05-11T17:46:43.252Z,10.38
2023-05-11T17:49:10.205Z,10.40
2023-05-11T17:51:36.787Z,10.88
2023-05-11T17:54:03.494Z,11.18
2023-05-11T17:56:30.058Z,11.60
2023-05-11T17:58:56.640Z,10.95
2023-05-11T18:01:23.303Z,12.40
2023-05-11T18:03:50.086Z,11.57
2023-05-11T18:06:17.147Z,12.45
2023-05-11T18:08:43.934Z,11.63
2023-05-11T18:11:12.749Z,12.20
2023-05-11T18:13:39.720Z,11.48
2023-05-11T18:16:06.989Z,11.75
2023-05-11T18:18:33.742Z,11.23
2023-05-11T18:21:05.598Z,12.30
2023-05-11T18:23:32.431Z,11.75
2023-05-11T18:25:58.937Z,12.27
2023-05-11T18:28:25.565Z,11.75
2023-05-11T18:30:52.396Z,12.25
2023-05-11T18:33:19.015Z,10.82
2023-05-11T18:35:46.659Z,11.85
2023-05-11T18:38:13.230Z,11.60
2023-05-11T18:40:40.000Z,11.40
2023-05-11T18:43:06.504Z,11.50
2023-05-11T18:45:35.050Z,11.30
2023-05-11T18:48:02.646Z,11.05
2023-05-11T18:50:29.836Z,11.32
2023-05-11T18:52:57.019Z,11.23
2023-05-11T18:55:23.793Z,11.68
2023-05-11T18:57:52.552Z,11.65
2023-05-11T19:00:20.582Z,11.60
2023-05-11T19:02:48.224Z,12.50
2023-05-11T19:05:15.079Z,13.18
2023-05-11T19:07:41.562Z,11.93
2023-05-11T19:10:09.485Z,12.70
2023-05-11T19:12:39.424Z,12.82
2023-05-11T19:15:06.568Z,11.90
2023-05-11T19:17:33.424Z,11.80
2023-05-11T19:19:59.946Z,11.70
2023-05-11T19:22:26.557Z,12.25
2023-05-11T19:24:54.452Z,12.18
2023-05-11T19:27:21.116Z,11.68
2023-05-11T19:29:52.972Z,11.60
2023-05-11T19:32:19.698Z,12.20
2023-05-11T19:34:46.724Z,11.32
2023-05-11T19:37:13.387Z,11.88
2023-05-11T19:39:40.225Z,11.35
2023-05-11T19:42:08.299Z,11.60
2023-05-11T19:44:37.776Z,11.43
2023-05-11T19:47:04.469Z,12.98
2023-05-11T19:49:30.997Z,11.95
2023-05-11T19:51:57.458Z,12.93
2023-05-11T19:54:24.032Z,12.38
2023-05-11T19:56:50.571Z,13.27
2023-05-11T19:59:17.095Z,13.80
2023-05-11T20:01:43.683Z,13.77
2023-05-11T20:04:12.667Z,14.77
2023-05-11T20:06:39.791Z,13.35
2023-05-11T20:09:07.332Z,12.95
2023-05-11T20:11:33.875Z,12.57
2023-05-11T20:14:00.828Z,11.68
2023-05-11T20:16:30.360Z,13.57
2023-05-11T20:18:59.242Z,12.82
2023-05-11T20:21:26.105Z,12.60
2023-05-11T20:23:52.706Z,13.07
2023-05-11T20:26:19.252Z,13.85
2023-05-11T20:28:45.812Z,14.02
2023-05-11T20:31:14.869Z,13.40
2023-05-11T20:36:13.930Z,13.70
2023-05-11T20:38:40.458Z,13.18
2023-05-11T20:41:07.644Z,13.20
2023-05-11T20:43:34.243Z,13.02
2023-05-11T20:46:06.656Z,12.30
2023-05-11T20:48:40.677Z,12.05
2023-05-11T20:51:08.456Z,12.20
2023-05-11T20:53:35.091Z,11.23
2023-05-11T20:56:03.037Z,10.75
2023-05-11T20:58:31.405Z,11.50
2023-05-11T21:00:58.070Z,11.35
2023-05-11T21:03:26.061Z,10.05
2023-05-11T21:05:53.322Z,10.88
2023-05-11T21:08:19.862Z,10.93
2023-05-11T21:10:46.333Z,9.85
2023-05-11T21:13:13.226Z,10.48
2023-05-11T21:15:39.756Z,9.77
2023-05-11T21:18:06.562Z,10.18
2023-05-11T21:20:33.098Z,10.00
2023-05-11T21:23:00.422Z,10.38
2023-05-11T21:25:26.984Z,10.20
2023-05-11T21:27:54.712Z,10.38
2023-05-11T21:30:21.405Z,10.57
2023-05-11T21:32:50.456Z,10.85
2023-05-11T21:35:17.462Z,10.77
2023-05-11T21:37:49.200Z,10.88
2023-05-11T21:40:17.645Z,10.40
2023-05-11T21:42:44.665Z,10.52
2023-05-11T21:45:11.982Z,10.85
2023-05-11T21:47:38.678Z,10.18
2023-05-11T21:50:07.650Z,10.23
2023-05-11T21:52:34.726Z,10.68
2023-05-11T21:55:01.322Z,10.60
2023-05-11T21:57:27.807Z,10.07
2023-05-11T21:59:54.261Z,10.40
2023-05-11T22:02:20.756Z,10.57
2023-05-11T22:04:47.352Z,10.35
2023-05-11T22:07:14.160Z,10.07
2023-05-11T22:09:40.701Z,10.50
2023-05-11T22:12:07.891Z,10.60
2023-05-11T22:14:34.529Z,10.45
2023-05-11T22:17:01.357Z,9.82
2023-05-11T22:19:29.071Z,10.40
2023-05-11T22:21:56.785Z,9.15
2023-05-11T22:24:24.955Z,9.38
2023-05-11T22:26:51.867Z,9.38
2023-05-11T22:29:18.423Z,9.43
2023-05-11T22:31:46.194Z,9.32
2023-05-11T22:34:13.097Z,8.63
2023-05-11T22:36:39.745Z,9.02
2023-05-11T22:39:06.333Z,8.80
2023-05-11T22:41:32.896Z,9.05
2023-05-11T22:44:00.010Z,9.82
2023-05-11T22:46:26.590Z,8.52
2023-05-11T22:48:53.325Z,9.20
2023-05-11T22:51:19.847Z,8.95
2023-05-11T22:53:46.378Z,8.43
2023-05-11T22:56:12.884Z,9.15
2023-05-11T22:58:39.439Z,8.07
2023-05-11T23:01:06.316Z,8.60
2023-05-11T23:03:34.462Z,8.40
2023-05-11T23:06:01.109Z,8.23
2023-05-11T23:08:27.630Z,8.00
2023-05-11T23:10:54.157Z,8.35
2023-05-11T23:13:22.812Z,8.93
2023-05-11T23:15:49.369Z,8.52
2023-05-11T23:18:16.011Z,8.52
2023-05-11T23:20:42.579Z,8.95
2023-05-11T23:23:09.275Z,8.80
2023-05-11T23:25:35.877Z,8.90
2023-05-11T23:28:02.431Z,8.75
2023-05-11T23:30:28.907Z,8.25
2023-05-11T23:32:55.500Z,8.30
2023-05-11T23:35:22.018Z,7.82
2023-05-11T23:37:48.572Z,8.25
2023-05-11T23:40:15.195Z,7.68
2023-05-11T23:42:41.664Z,7.50
2023-05-11T23:45:08.690Z,7.38
2023-05-11T23:47:36.378Z,7.18
2023-05-11T23:50:03.065Z,6.97
2023-05-11T23:52:29.780Z,6.97
2023-05-11T23:54:56.423Z,7.05
2023-05-11T23:57:22.901Z,6.80
2023-05-11T23:59:49.629Z,6.60
